This is the latest recevied weather packets stored in our database for station/object K5DLF-13. If no packets are shown the sender has not sent any weather packets the latest 10 day(s).
| Time | Temp. | Humidity | Pressure | Rain* | Wind** | Luminosity | Snow |
|---|---|---|---|---|---|---|---|
| 1777646065 | 18.89° C | 94% | 1008.2 hPa | 1.27 mm | - | 53 W/m² | - |
| 1777645766 | 18.89° C | 94% | 1008.2 hPa | 0.25 mm | - | 40 W/m² | - |
| 1777645465 | 18.89° C | 94% | 1009.4 hPa | 0 mm | - | 12 W/m² | - |
| 1777645165 | 19.44° C | 94% | 1009.3 hPa | 0 mm | - | 9 W/m² | - |
| 1777644866 | 19.44° C | 94% | 1009.3 hPa | 0 mm | - | 12 W/m² | - |
| 1777644565 | 19.44° C | 94% | 1008.5 hPa | 0 mm | - | 19 W/m² | - |
| 1777644266 | 19.44° C | 94% | 1008.3 hPa | 0 mm | - | 23 W/m² | - |
| 1777643965 | 19.44° C | 94% | 1008.7 hPa | 0 mm | - | 16 W/m² | - |
| 1777643665 | 19.44° C | 94% | 1008.6 hPa | 0 mm | - | 19 W/m² | - |
| 1777643365 | 19.44° C | 94% | 1008.9 hPa | 0 mm | - | 12 W/m² | - |
| 1777643065 | 19.44° C | 94% | 1009.1 hPa | 0 mm | - | 11 W/m² | - |
| 1777642765 | 19.44° C | 94% | 1009.1 hPa | 0 mm | - | 11 W/m² | - |
| 1777642465 | 19.44° C | 94% | 1008.9 hPa | 0 mm | - | 14 W/m² | - |
| 1777642166 | 19.44° C | 94% | 1009.4 hPa | 0.25 mm | - | 11 W/m² | - |
| 1777641866 | 19.44° C | 94% | 1009.5 hPa | 0.51 mm | - | 12 W/m² | - |
| 1777641566 | 19.44° C | 94% | 1009.7 hPa | 1.02 mm | - | 9 W/m² | - |
| 1777641266 | 19.44° C | 94% | 1009.1 hPa | 1.02 mm | - | 11 W/m² | - |
| 1777640966 | 19.44° C | 94% | 1009.2 hPa | 1.02 mm | - | 7 W/m² | - |
| 1777640666 | 19.44° C | 94% | 1009.1 hPa | 1.02 mm | - | 7 W/m² | - |
| 1777640366 | 19.44° C | 94% | 1009.2 hPa | 1.02 mm | - | 5 W/m² | - |
| 1777640066 | 19.44° C | 93% | 1009.2 hPa | 1.02 mm | - | 5 W/m² | - |
| 1777639766 | 19.44° C | 93% | 1008.6 hPa | 1.02 mm | - | 7 W/m² | - |
| 1777639466 | 19.44° C | 93% | 1008.7 hPa | 1.02 mm | - | 5 W/m² | - |
| 1777639166 | 19.44° C | 93% | 1008.7 hPa | 1.02 mm | - | 9 W/m² | - |
| 1777638866 | 19.44° C | 93% | 1008.5 hPa | 1.02 mm | - | 11 W/m² | - |
* Rain latest hour (hover to see other rain measurements)
** Current wind speed in m/s (hover to see current wind gust speed)